Terminal Aerodrome Forecast
Issued by NWS Amarillo, TX

Home | Current Version | Previous Version | Text Only | Print | Product List | Glossary On
Versions: 1 2 3 4 5 6 7 8 9 10 11 12 13 14 15 16 17 18 19
000
FTUS44 KAMA 161900 AAA
TAFAMA
TAF AMD
KAMA 161929Z 1619/1718 05010KT P6SM BKN250
     FM170100 04020G28KT P6SM BKN250
     FM171200 02018G26KT P6SM BKN025=

USA.gov is the U.S. government's official web portal to all federal, state and local government web resources and services.